sensor_id;sensor_type;location;lat;lon;timestamp;temperature;humidity
62581;DHT22;48640;48.770;9.148;2022-07-12T00:00:01;18.00;77.00
62581;DHT22;48640;48.770;9.148;2022-07-12T00:02:28;18.00;77.50
62581;DHT22;48640;48.770;9.148;2022-07-12T00:04:55;17.90;77.80
62581;DHT22;48640;48.770;9.148;2022-07-12T00:07:23;17.90;78.00
62581;DHT22;48640;48.770;9.148;2022-07-12T00:09:52;17.90;78.30
62581;DHT22;48640;48.770;9.148;2022-07-12T00:12:19;17.80;78.60
62581;DHT22;48640;48.770;9.148;2022-07-12T00:14:45;17.80;78.80
62581;DHT22;48640;48.770;9.148;2022-07-12T00:17:13;17.80;79.10
62581;DHT22;48640;48.770;9.148;2022-07-12T00:19:40;17.90;79.70
62581;DHT22;48640;48.770;9.148;2022-07-12T00:22:07;17.70;79.80
62581;DHT22;48640;48.770;9.148;2022-07-12T00:24:35;17.60;80.00
62581;DHT22;48640;48.770;9.148;2022-07-12T00:27:02;17.60;80.00
62581;DHT22;48640;48.770;9.148;2022-07-12T00:29:29;17.70;80.00
62581;DHT22;48640;48.770;9.148;2022-07-12T00:31:56;17.60;80.00
62581;DHT22;48640;48.770;9.148;2022-07-12T00:34:23;17.60;80.10
62581;DHT22;48640;48.770;9.148;2022-07-12T00:36:49;17.70;80.10
62581;DHT22;48640;48.770;9.148;2022-07-12T00:39:16;17.60;79.90
62581;DHT22;48640;48.770;9.148;2022-07-12T00:41:47;17.60;79.90
62581;DHT22;48640;48.770;9.148;2022-07-12T00:44:14;17.70;80.10
62581;DHT22;48640;48.770;9.148;2022-07-12T00:46:42;17.60;79.70
62581;DHT22;48640;48.770;9.148;2022-07-12T00:49:09;17.60;79.90
62581;DHT22;48640;48.770;9.148;2022-07-12T00:51:40;17.50;80.00
62581;DHT22;48640;48.770;9.148;2022-07-12T00:54:07;17.60;80.10
62581;DHT22;48640;48.770;9.148;2022-07-12T00:56:35;17.60;80.00
62581;DHT22;48640;48.770;9.148;2022-07-12T00:59:03;17.50;79.80
62581;DHT22;48640;48.770;9.148;2022-07-12T01:01:30;17.50;79.80
62581;DHT22;48640;48.770;9.148;2022-07-12T01:03:57;17.70;80.10
62581;DHT22;48640;48.770;9.148;2022-07-12T01:06:24;17.60;80.10
62581;DHT22;48640;48.770;9.148;2022-07-12T01:08:52;17.60;80.00
62581;DHT22;48640;48.770;9.148;2022-07-12T01:11:19;17.60;80.20
62581;DHT22;48640;48.770;9.148;2022-07-12T01:13:46;17.50;80.10
62581;DHT22;48640;48.770;9.148;2022-07-12T01:16:15;17.60;80.20
62581;DHT22;48640;48.770;9.148;2022-07-12T01:18:43;17.50;80.10
62581;DHT22;48640;48.770;9.148;2022-07-12T01:21:15;17.50;80.20
62581;DHT22;48640;48.770;9.148;2022-07-12T01:23:44;17.60;80.20
62581;DHT22;48640;48.770;9.148;2022-07-12T01:26:12;17.60;80.20
62581;DHT22;48640;48.770;9.148;2022-07-12T01:28:39;17.60;80.00
62581;DHT22;48640;48.770;9.148;2022-07-12T01:31:06;17.50;80.10
62581;DHT22;48640;48.770;9.148;2022-07-12T01:33:33;17.50;80.50
62581;DHT22;48640;48.770;9.148;2022-07-12T01:36:00;17.50;80.70
62581;DHT22;48640;48.770;9.148;2022-07-12T01:38:27;17.50;80.80
62581;DHT22;48640;48.770;9.148;2022-07-12T01:40:56;17.40;81.20
62581;DHT22;48640;48.770;9.148;2022-07-12T01:43:23;17.40;81.50
62581;DHT22;48640;48.770;9.148;2022-07-12T01:45:50;17.30;81.60
62581;DHT22;48640;48.770;9.148;2022-07-12T01:48:17;17.30;82.90
62581;DHT22;48640;48.770;9.148;2022-07-12T01:50:44;17.10;82.30
62581;DHT22;48640;48.770;9.148;2022-07-12T01:53:11;17.10;82.80
62581;DHT22;48640;48.770;9.148;2022-07-12T01:55:39;17.10;83.00
62581;DHT22;48640;48.770;9.148;2022-07-12T01:58:08;17.20;83.50
62581;DHT22;48640;48.770;9.148;2022-07-12T02:00:35;17.00;83.40
62581;DHT22;48640;48.770;9.148;2022-07-12T02:03:02;17.00;83.60
62581;DHT22;48640;48.770;9.148;2022-07-12T02:05:29;17.00;83.70
62581;DHT22;48640;48.770;9.148;2022-07-12T02:07:56;16.90;84.10
62581;DHT22;48640;48.770;9.148;2022-07-12T02:10:24;17.00;84.20
62581;DHT22;48640;48.770;9.148;2022-07-12T02:12:51;17.10;84.90
62581;DHT22;48640;48.770;9.148;2022-07-12T02:15:19;17.10;83.70
62581;DHT22;48640;48.770;9.148;2022-07-12T02:17:46;17.10;83.80
62581;DHT22;48640;48.770;9.148;2022-07-12T02:20:13;17.10;83.90
62581;DHT22;48640;48.770;9.148;2022-07-12T02:22:40;17.00;84.10
62581;DHT22;48640;48.770;9.148;2022-07-12T02:25:07;16.90;84.30
62581;DHT22;48640;48.770;9.148;2022-07-12T02:27:34;16.90;84.70
62581;DHT22;48640;48.770;9.148;2022-07-12T02:30:01;16.90;84.70
62581;DHT22;48640;48.770;9.148;2022-07-12T02:32:29;16.90;84.60
62581;DHT22;48640;48.770;9.148;2022-07-12T02:34:56;16.80;84.90
62581;DHT22;48640;48.770;9.148;2022-07-12T02:37:23;16.80;85.00
62581;DHT22;48640;48.770;9.148;2022-07-12T02:39:50;16.70;85.90
62581;DHT22;48640;48.770;9.148;2022-07-12T02:42:37;16.80;86.00
62581;DHT22;48640;48.770;9.148;2022-07-12T02:45:05;16.60;85.70
62581;DHT22;48640;48.770;9.148;2022-07-12T02:47:36;16.60;85.70
62581;DHT22;48640;48.770;9.148;2022-07-12T02:50:04;16.60;85.70
62581;DHT22;48640;48.770;9.148;2022-07-12T02:52:31;16.60;85.40
62581;DHT22;48640;48.770;9.148;2022-07-12T02:54:57;16.60;85.20
62581;DHT22;48640;48.770;9.148;2022-07-12T02:57:24;16.60;85.20
62581;DHT22;48640;48.770;9.148;2022-07-12T02:59:51;16.60;85.50
62581;DHT22;48640;48.770;9.148;2022-07-12T03:02:18;16.50;85.60
62581;DHT22;48640;48.770;9.148;2022-07-12T03:04:46;16.50;85.90
62581;DHT22;48640;48.770;9.148;2022-07-12T03:07:13;16.30;86.00
62581;DHT22;48640;48.770;9.148;2022-07-12T03:09:40;16.30;86.50
62581;DHT22;48640;48.770;9.148;2022-07-12T03:12:07;16.30;86.60
62581;DHT22;48640;48.770;9.148;2022-07-12T03:14:34;16.30;87.00
62581;DHT22;48640;48.770;9.148;2022-07-12T03:17:01;16.40;86.80
62581;DHT22;48640;48.770;9.148;2022-07-12T03:19:28;16.40;86.40
62581;DHT22;48640;48.770;9.148;2022-07-12T03:21:56;16.40;86.50
62581;DHT22;48640;48.770;9.148;2022-07-12T03:24:23;16.40;86.50
62581;DHT22;48640;48.770;9.148;2022-07-12T03:26:50;16.40;86.60
62581;DHT22;48640;48.770;9.148;2022-07-12T03:29:17;16.40;86.60
62581;DHT22;48640;48.770;9.148;2022-07-12T03:31:44;16.50;86.40
62581;DHT22;48640;48.770;9.148;2022-07-12T03:34:10;16.50;86.10
62581;DHT22;48640;48.770;9.148;2022-07-12T03:36:37;16.50;86.40
62581;DHT22;48640;48.770;9.148;2022-07-12T03:39:05;16.50;86.50
62581;DHT22;48640;48.770;9.148;2022-07-12T03:41:32;16.50;86.60
62581;DHT22;48640;48.770;9.148;2022-07-12T03:43:59;16.50;86.50
62581;DHT22;48640;48.770;9.148;2022-07-12T03:46:25;16.60;86.30
62581;DHT22;48640;48.770;9.148;2022-07-12T03:48:52;16.60;85.70
62581;DHT22;48640;48.770;9.148;2022-07-12T03:51:19;16.60;85.80
62581;DHT22;48640;48.770;9.148;2022-07-12T03:53:46;16.70;85.60
62581;DHT22;48640;48.770;9.148;2022-07-12T03:56:14;16.60;85.40
62581;DHT22;48640;48.770;9.148;2022-07-12T03:59:02;16.70;85.80
62581;DHT22;48640;48.770;9.148;2022-07-12T04:01:29;16.70;85.50
62581;DHT22;48640;48.770;9.148;2022-07-12T04:03:56;16.70;85.40
62581;DHT22;48640;48.770;9.148;2022-07-12T04:06:23;16.70;85.10
62581;DHT22;48640;48.770;9.148;2022-07-12T04:08:50;16.70;85.20
62581;DHT22;48640;48.770;9.148;2022-07-12T04:11:18;16.90;85.70
62581;DHT22;48640;48.770;9.148;2022-07-12T04:13:45;16.70;85.20
62581;DHT22;48640;48.770;9.148;2022-07-12T04:16:12;16.80;86.00
62581;DHT22;48640;48.770;9.148;2022-07-12T04:18:38;16.80;85.80
62581;DHT22;48640;48.770;9.148;2022-07-12T04:21:05;16.90;85.20
62581;DHT22;48640;48.770;9.148;2022-07-12T04:23:32;17.10;84.90
62581;DHT22;48640;48.770;9.148;2022-07-12T04:25:59;17.00;84.10
62581;DHT22;48640;48.770;9.148;2022-07-12T04:28:27;17.10;84.10
62581;DHT22;48640;48.770;9.148;2022-07-12T04:30:54;17.20;84.30
62581;DHT22;48640;48.770;9.148;2022-07-12T04:33:21;17.30;83.90
62581;DHT22;48640;48.770;9.148;2022-07-12T04:35:48;17.30;83.50
62581;DHT22;48640;48.770;9.148;2022-07-12T04:38:15;17.30;83.30
62581;DHT22;48640;48.770;9.148;2022-07-12T04:40:41;17.40;83.40
62581;DHT22;48640;48.770;9.148;2022-07-12T04:43:08;17.40;82.80
62581;DHT22;48640;48.770;9.148;2022-07-12T04:45:36;17.60;82.90
62581;DHT22;48640;48.770;9.148;2022-07-12T04:48:03;17.70;81.90
62581;DHT22;48640;48.770;9.148;2022-07-12T04:50:30;17.90;81.20
62581;DHT22;48640;48.770;9.148;2022-07-12T04:52:57;18.20;80.30
62581;DHT22;48640;48.770;9.148;2022-07-12T04:55:24;18.50;78.60
62581;DHT22;48640;48.770;9.148;2022-07-12T04:57:51;18.90;76.80
62581;DHT22;48640;48.770;9.148;2022-07-12T05:00:18;19.10;75.40
62581;DHT22;48640;48.770;9.148;2022-07-12T05:02:46;19.40;73.80
62581;DHT22;48640;48.770;9.148;2022-07-12T05:05:13;19.70;72.70
62581;DHT22;48640;48.770;9.148;2022-07-12T05:07:40;19.80;72.10
62581;DHT22;48640;48.770;9.148;2022-07-12T05:10:09;20.10;70.50
62581;DHT22;48640;48.770;9.148;2022-07-12T05:12:36;20.30;69.50
62581;DHT22;48640;48.770;9.148;2022-07-12T05:15:03;20.50;69.10
62581;DHT22;48640;48.770;9.148;2022-07-12T05:17:30;20.50;67.90
62581;DHT22;48640;48.770;9.148;2022-07-12T05:19:58;20.90;67.30
62581;DHT22;48640;48.770;9.148;2022-07-12T05:22:25;21.30;65.50
62581;DHT22;48640;48.770;9.148;2022-07-12T05:24:52;21.70;63.80
62581;DHT22;48640;48.770;9.148;2022-07-12T05:27:19;21.90;62.30
62581;DHT22;48640;48.770;9.148;2022-07-12T05:29:46;22.20;61.80
62581;DHT22;48640;48.770;9.148;2022-07-12T05:32:13;22.60;60.10
62581;DHT22;48640;48.770;9.148;2022-07-12T05:34:39;23.00;59.20
62581;DHT22;48640;48.770;9.148;2022-07-12T05:37:08;23.20;57.30
62581;DHT22;48640;48.770;9.148;2022-07-12T05:39:34;23.30;57.10
62581;DHT22;48640;48.770;9.148;2022-07-12T05:42:01;23.60;56.60
62581;DHT22;48640;48.770;9.148;2022-07-12T05:44:28;24.10;55.80
62581;DHT22;48640;48.770;9.148;2022-07-12T05:46:55;24.10;54.60
62581;DHT22;48640;48.770;9.148;2022-07-12T05:49:22;24.20;54.50
62581;DHT22;48640;48.770;9.148;2022-07-12T05:51:49;24.50;53.60
62581;DHT22;48640;48.770;9.148;2022-07-12T05:54:34;23.20;55.10
62581;DHT22;48640;48.770;9.148;2022-07-12T05:57:01;24.00;55.20
62581;DHT22;48640;48.770;9.148;2022-07-12T05:59:28;24.50;52.90
62581;DHT22;48640;48.770;9.148;2022-07-12T06:01:56;24.80;52.90
62581;DHT22;48640;48.770;9.148;2022-07-12T06:04:23;26.00;50.40
62581;DHT22;48640;48.770;9.148;2022-07-12T06:06:50;26.70;49.00
62581;DHT22;48640;48.770;9.148;2022-07-12T06:09:17;27.20;47.00
62581;DHT22;48640;48.770;9.148;2022-07-12T06:11:45;27.80;46.40
62581;DHT22;48640;48.770;9.148;2022-07-12T06:14:12;28.20;44.10
62581;DHT22;48640;48.770;9.148;2022-07-12T06:16:38;28.80;43.40
62581;DHT22;48640;48.770;9.148;2022-07-12T06:19:05;29.40;41.60
62581;DHT22;48640;48.770;9.148;2022-07-12T06:21:32;29.80;41.60
62581;DHT22;48640;48.770;9.148;2022-07-12T06:23:59;30.30;40.20
62581;DHT22;48640;48.770;9.148;2022-07-12T06:26:26;31.00;38.20
62581;DHT22;48640;48.770;9.148;2022-07-12T06:28:54;31.20;37.90
62581;DHT22;48640;48.770;9.148;2022-07-12T06:31:21;30.80;37.10
62581;DHT22;48640;48.770;9.148;2022-07-12T06:33:49;30.40;36.40
62581;DHT22;48640;48.770;9.148;2022-07-12T06:36:16;30.60;37.00
62581;DHT22;48640;48.770;9.148;2022-07-12T06:38:43;31.10;36.20
62581;DHT22;48640;48.770;9.148;2022-07-12T06:41:09;31.70;36.20
62581;DHT22;48640;48.770;9.148;2022-07-12T06:43:36;32.00;35.60
62581;DHT22;48640;48.770;9.148;2022-07-12T06:46:07;32.70;34.50
62581;DHT22;48640;48.770;9.148;2022-07-12T06:48:33;32.80;34.90
62581;DHT22;48640;48.770;9.148;2022-07-12T06:51:00;33.40;33.40
62581;DHT22;48640;48.770;9.148;2022-07-12T06:53:27;33.00;32.90
62581;DHT22;48640;48.770;9.148;2022-07-12T06:55:54;32.50;33.40
62581;DHT22;48640;48.770;9.148;2022-07-12T06:58:22;31.60;34.90
62581;DHT22;48640;48.770;9.148;2022-07-12T07:00:49;31.00;36.10
62581;DHT22;48640;48.770;9.148;2022-07-12T07:03:17;29.70;37.00
62581;DHT22;48640;48.770;9.148;2022-07-12T07:05:44;29.60;38.20
62581;DHT22;48640;48.770;9.148;2022-07-12T07:08:11;30.80;37.00
62581;DHT22;48640;48.770;9.148;2022-07-12T07:10:38;31.40;35.10
62581;DHT22;48640;48.770;9.148;2022-07-12T07:13:04;31.30;35.40
62581;DHT22;48640;48.770;9.148;2022-07-12T07:15:31;31.30;34.90
62581;DHT22;48640;48.770;9.148;2022-07-12T07:17:58;31.60;34.00
62581;DHT22;48640;48.770;9.148;2022-07-12T07:20:27;32.70;33.10
62581;DHT22;48640;48.770;9.148;2022-07-12T07:22:54;32.40;32.90
62581;DHT22;48640;48.770;9.148;2022-07-12T07:25:21;32.40;33.60
62581;DHT22;48640;48.770;9.148;2022-07-12T07:27:48;32.60;32.30
62581;DHT22;48640;48.770;9.148;2022-07-12T07:30:15;32.20;31.00
62581;DHT22;48640;48.770;9.148;2022-07-12T07:32:59;33.10;31.30
62581;DHT22;48640;48.770;9.148;2022-07-12T07:35:26;34.40;29.40
62581;DHT22;48640;48.770;9.148;2022-07-12T07:37:54;34.60;28.60
62581;DHT22;48640;48.770;9.148;2022-07-12T07:40:21;35.00;28.30
62581;DHT22;48640;48.770;9.148;2022-07-12T07:42:48;33.20;29.20
62581;DHT22;48640;48.770;9.148;2022-07-12T07:45:15;31.80;30.90
62581;DHT22;48640;48.770;9.148;2022-07-12T07:47:44;31.70;31.70
62581;DHT22;48640;48.770;9.148;2022-07-12T07:50:11;33.60;30.70
62581;DHT22;48640;48.770;9.148;2022-07-12T07:52:37;34.80;27.80
62581;DHT22;48640;48.770;9.148;2022-07-12T07:55:06;32.60;28.80
62581;DHT22;48640;48.770;9.148;2022-07-12T07:57:33;31.90;32.10
62581;DHT22;48640;48.770;9.148;2022-07-12T08:00:00;34.00;29.60
62581;DHT22;48640;48.770;9.148;2022-07-12T08:02:27;34.80;29.20
62581;DHT22;48640;48.770;9.148;2022-07-12T08:04:54;34.20;28.90
62581;DHT22;48640;48.770;9.148;2022-07-12T08:07:21;34.90;27.70
62581;DHT22;48640;48.770;9.148;2022-07-12T08:09:47;37.10;26.60
62581;DHT22;48640;48.770;9.148;2022-07-12T08:12:16;37.90;24.90
62581;DHT22;48640;48.770;9.148;2022-07-12T08:14:43;35.80;26.40
62581;DHT22;48640;48.770;9.148;2022-07-12T08:17:10;34.90;27.10
62581;DHT22;48640;48.770;9.148;2022-07-12T08:19:36;35.50;26.40
62581;DHT22;48640;48.770;9.148;2022-07-12T08:22:04;36.30;25.20
62581;DHT22;48640;48.770;9.148;2022-07-12T08:24:30;37.30;25.60
62581;DHT22;48640;48.770;9.148;2022-07-12T08:26:57;37.80;23.80
62581;DHT22;48640;48.770;9.148;2022-07-12T08:29:26;37.50;24.60
62581;DHT22;48640;48.770;9.148;2022-07-12T08:31:52;38.90;24.60
62581;DHT22;48640;48.770;9.148;2022-07-12T08:34:19;40.70;22.80
62581;DHT22;48640;48.770;9.148;2022-07-12T08:36:46;41.00;22.20
62581;DHT22;48640;48.770;9.148;2022-07-12T08:39:13;41.90;22.00
62581;DHT22;48640;48.770;9.148;2022-07-12T08:41:40;40.50;21.10
62581;DHT22;48640;48.770;9.148;2022-07-12T08:44:06;41.60;21.30
62581;DHT22;48640;48.770;9.148;2022-07-12T08:46:35;42.00;21.30
62581;DHT22;48640;48.770;9.148;2022-07-12T08:49:05;42.70;21.00
62581;DHT22;48640;48.770;9.148;2022-07-12T08:51:33;41.90;20.10
62581;DHT22;48640;48.770;9.148;2022-07-12T08:54:07;42.90;20.60
62581;DHT22;48640;48.770;9.148;2022-07-12T08:56:35;39.80;21.00
62581;DHT22;48640;48.770;9.148;2022-07-12T08:59:09;40.10;22.90
62581;DHT22;48640;48.770;9.148;2022-07-12T09:01:42;38.90;23.80
62581;DHT22;48640;48.770;9.148;2022-07-12T09:04:10;39.70;22.40
62581;DHT22;48640;48.770;9.148;2022-07-12T09:06:37;39.20;22.80
62581;DHT22;48640;48.770;9.148;2022-07-12T09:09:04;41.20;22.10
62581;DHT22;48640;48.770;9.148;2022-07-12T09:11:35;41.90;20.30
62581;DHT22;48640;48.770;9.148;2022-07-12T09:14:02;40.40;21.70
62581;DHT22;48640;48.770;9.148;2022-07-12T09:16:29;37.30;22.80
62581;DHT22;48640;48.770;9.148;2022-07-12T09:19:13;37.80;24.70
62581;DHT22;48640;48.770;9.148;2022-07-12T09:21:47;40.70;22.70
62581;DHT22;48640;48.770;9.148;2022-07-12T09:24:15;42.80;20.20
62581;DHT22;48640;48.770;9.148;2022-07-12T09:26:42;37.50;23.10
62581;DHT22;48640;48.770;9.148;2022-07-12T09:29:11;37.50;24.10
62581;DHT22;48640;48.770;9.148;2022-07-12T09:31:39;39.70;23.50
62581;DHT22;48640;48.770;9.148;2022-07-12T09:34:28;41.60;20.90
62581;DHT22;48640;48.770;9.148;2022-07-12T09:37:12;42.70;20.80
62581;DHT22;48640;48.770;9.148;2022-07-12T09:39:40;44.60;18.90
62581;DHT22;48640;48.770;9.148;2022-07-12T09:42:08;45.10;18.70
62581;DHT22;48640;48.770;9.148;2022-07-12T09:44:35;43.40;17.70
62581;DHT22;48640;48.770;9.148;2022-07-12T09:47:03;42.10;20.20
62581;DHT22;48640;48.770;9.148;2022-07-12T09:49:31;43.20;19.40
62581;DHT22;48640;48.770;9.148;2022-07-12T09:52:00;43.10;19.70
62581;DHT22;48640;48.770;9.148;2022-07-12T09:54:28;43.50;19.00
62581;DHT22;48640;48.770;9.148;2022-07-12T09:56:59;44.10;18.70
62581;DHT22;48640;48.770;9.148;2022-07-12T09:59:28;44.30;19.20
62581;DHT22;48640;48.770;9.148;2022-07-12T10:01:56;44.50;18.20
62581;DHT22;48640;48.770;9.148;2022-07-12T10:04:28;39.40;19.30
62581;DHT22;48640;48.770;9.148;2022-07-12T10:06:57;37.90;23.40
62581;DHT22;48640;48.770;9.148;2022-07-12T10:09:25;39.40;22.90
62581;DHT22;48640;48.770;9.148;2022-07-12T10:11:52;41.20;21.50
62581;DHT22;48640;48.770;9.148;2022-07-12T10:14:20;42.70;20.10
62581;DHT22;48640;48.770;9.148;2022-07-12T10:16:50;42.40;20.20
62581;DHT22;48640;48.770;9.148;2022-07-12T10:19:23;42.00;20.50
62581;DHT22;48640;48.770;9.148;2022-07-12T10:21:50;42.70;19.90
62581;DHT22;48640;48.770;9.148;2022-07-12T10:24:50;41.20;19.80
62581;DHT22;48640;48.770;9.148;2022-07-12T10:27:32;38.20;23.10
62581;DHT22;48640;48.770;9.148;2022-07-12T10:30:19;36.50;23.70
62581;DHT22;48640;48.770;9.148;2022-07-12T10:32:49;36.30;24.70
62581;DHT22;48640;48.770;9.148;2022-07-12T10:35:20;36.80;25.70
62581;DHT22;48640;48.770;9.148;2022-07-12T10:38:19;37.20;26.00
62581;DHT22;48640;48.770;9.148;2022-07-12T10:40:49;37.00;25.10
62581;DHT22;48640;48.770;9.148;2022-07-12T10:43:27;36.10;25.90
62581;DHT22;48640;48.770;9.148;2022-07-12T10:46:21;36.30;25.90
62581;DHT22;48640;48.770;9.148;2022-07-12T10:48:49;35.70;25.30
62581;DHT22;48640;48.770;9.148;2022-07-12T10:51:16;31.20;29.20
62581;DHT22;48640;48.770;9.148;2022-07-12T10:53:45;29.20;32.90
62581;DHT22;48640;48.770;9.148;2022-07-12T10:56:17;29.70;34.30
62581;DHT22;48640;48.770;9.148;2022-07-12T10:58:46;31.50;31.40
62581;DHT22;48640;48.770;9.148;2022-07-12T11:01:16;32.90;29.90
62581;DHT22;48640;48.770;9.148;2022-07-12T11:03:45;33.20;28.20
62581;DHT22;48640;48.770;9.148;2022-07-12T11:06:14;33.00;28.70
62581;DHT22;48640;48.770;9.148;2022-07-12T11:08:55;33.30;29.00
62581;DHT22;48640;48.770;9.148;2022-07-12T11:11:25;32.40;29.40
62581;DHT22;48640;48.770;9.148;2022-07-12T11:13:53;33.00;29.40
62581;DHT22;48640;48.770;9.148;2022-07-12T11:16:20;32.40;29.30
62581;DHT22;48640;48.770;9.148;2022-07-12T11:18:47;32.90;28.40
62581;DHT22;48640;48.770;9.148;2022-07-12T11:21:14;33.40;28.50
62581;DHT22;48640;48.770;9.148;2022-07-12T11:23:41;33.30;28.20
62581;DHT22;48640;48.770;9.148;2022-07-12T11:26:10;33.00;27.90
62581;DHT22;48640;48.770;9.148;2022-07-12T11:28:39;33.00;28.40
62581;DHT22;48640;48.770;9.148;2022-07-12T11:31:08;33.10;28.10
62581;DHT22;48640;48.770;9.148;2022-07-12T11:33:36;32.60;28.10
62581;DHT22;48640;48.770;9.148;2022-07-12T11:36:06;32.50;28.70
62581;DHT22;48640;48.770;9.148;2022-07-12T11:38:33;31.00;30.70
62581;DHT22;48640;48.770;9.148;2022-07-12T11:41:02;31.30;30.70
62581;DHT22;48640;48.770;9.148;2022-07-12T11:43:30;31.70;29.90
62581;DHT22;48640;48.770;9.148;2022-07-12T11:45:58;31.90;29.80
62581;DHT22;48640;48.770;9.148;2022-07-12T11:48:26;31.90;29.80
62581;DHT22;48640;48.770;9.148;2022-07-12T11:50:56;31.60;29.10
62581;DHT22;48640;48.770;9.148;2022-07-12T11:53:24;31.10;30.60
62581;DHT22;48640;48.770;9.148;2022-07-12T11:55:53;31.00;30.30
62581;DHT22;48640;48.770;9.148;2022-07-12T11:58:22;31.10;31.30
62581;DHT22;48640;48.770;9.148;2022-07-12T12:00:50;31.40;30.60
62581;DHT22;48640;48.770;9.148;2022-07-12T12:03:20;31.30;31.50
62581;DHT22;48640;48.770;9.148;2022-07-12T12:05:48;31.40;29.80
62581;DHT22;48640;48.770;9.148;2022-07-12T12:08:15;31.50;30.10
62581;DHT22;48640;48.770;9.148;2022-07-12T12:10:52;31.20;30.50
62581;DHT22;48640;48.770;9.148;2022-07-12T12:13:19;30.20;30.70
62581;DHT22;48640;48.770;9.148;2022-07-12T12:15:50;29.80;32.70
62581;DHT22;48640;48.770;9.148;2022-07-12T12:18:27;29.90;32.30
62581;DHT22;48640;48.770;9.148;2022-07-12T12:20:57;29.50;33.30
62581;DHT22;48640;48.770;9.148;2022-07-12T12:23:24;29.60;33.60
62581;DHT22;48640;48.770;9.148;2022-07-12T12:25:51;29.90;32.00
62581;DHT22;48640;48.770;9.148;2022-07-12T12:28:18;29.50;32.20
62581;DHT22;48640;48.770;9.148;2022-07-12T12:30:50;27.90;34.10
62581;DHT22;48640;48.770;9.148;2022-07-12T12:33:34;27.20;35.90
62581;DHT22;48640;48.770;9.148;2022-07-12T12:36:14;26.20;37.60
62581;DHT22;48640;48.770;9.148;2022-07-12T12:38:41;26.20;39.20
62581;DHT22;48640;48.770;9.148;2022-07-12T12:41:09;26.80;38.30
62581;DHT22;48640;48.770;9.148;2022-07-12T12:43:36;27.40;37.80
62581;DHT22;48640;48.770;9.148;2022-07-12T12:46:04;26.70;36.50
62581;DHT22;48640;48.770;9.148;2022-07-12T12:48:34;26.20;38.10
62581;DHT22;48640;48.770;9.148;2022-07-12T12:51:06;26.40;38.60
62581;DHT22;48640;48.770;9.148;2022-07-12T12:53:33;26.90;37.80
62581;DHT22;48640;48.770;9.148;2022-07-12T12:56:04;27.10;37.10
62581;DHT22;48640;48.770;9.148;2022-07-12T12:58:32;27.40;36.50
62581;DHT22;48640;48.770;9.148;2022-07-12T13:00:58;27.30;36.10
62581;DHT22;48640;48.770;9.148;2022-07-12T13:03:25;26.90;38.00
62581;DHT22;48640;48.770;9.148;2022-07-12T13:05:53;26.90;37.30
62581;DHT22;48640;48.770;9.148;2022-07-12T13:08:20;26.60;37.40
62581;DHT22;48640;48.770;9.148;2022-07-12T13:10:48;26.60;38.80
62581;DHT22;48640;48.770;9.148;2022-07-12T13:13:36;26.40;37.80
62581;DHT22;48640;48.770;9.148;2022-07-12T13:16:04;26.40;38.40
62581;DHT22;48640;48.770;9.148;2022-07-12T13:18:31;26.40;38.50
62581;DHT22;48640;48.770;9.148;2022-07-12T13:21:00;26.70;38.70
62581;DHT22;48640;48.770;9.148;2022-07-12T13:23:27;26.80;37.90
62581;DHT22;48640;48.770;9.148;2022-07-12T13:25:54;26.70;38.70
62581;DHT22;48640;48.770;9.148;2022-07-12T13:28:21;26.70;39.00
62581;DHT22;48640;48.770;9.148;2022-07-12T13:30:47;27.10;38.80
62581;DHT22;48640;48.770;9.148;2022-07-12T13:33:14;27.40;37.90
62581;DHT22;48640;48.770;9.148;2022-07-12T13:35:41;27.50;37.20
62581;DHT22;48640;48.770;9.148;2022-07-12T13:38:10;26.70;37.80
62581;DHT22;48640;48.770;9.148;2022-07-12T13:40:37;26.30;39.00
62581;DHT22;48640;48.770;9.148;2022-07-12T13:43:03;26.10;39.70
62581;DHT22;48640;48.770;9.148;2022-07-12T13:45:30;25.80;40.20
62581;DHT22;48640;48.770;9.148;2022-07-12T13:48:00;25.90;40.40
62581;DHT22;48640;48.770;9.148;2022-07-12T13:50:28;26.00;40.80
62581;DHT22;48640;48.770;9.148;2022-07-12T13:52:55;26.20;40.30
62581;DHT22;48640;48.770;9.148;2022-07-12T13:55:23;26.40;39.20
62581;DHT22;48640;48.770;9.148;2022-07-12T13:57:50;26.00;39.20
62581;DHT22;48640;48.770;9.148;2022-07-12T14:00:17;25.80;40.10
62581;DHT22;48640;48.770;9.148;2022-07-12T14:02:45;26.20;40.50
62581;DHT22;48640;48.770;9.148;2022-07-12T14:05:13;26.30;39.20
62581;DHT22;48640;48.770;9.148;2022-07-12T14:07:42;26.40;40.00
62581;DHT22;48640;48.770;9.148;2022-07-12T14:10:09;26.50;39.00
62581;DHT22;48640;48.770;9.148;2022-07-12T14:12:38;26.80;39.00
62581;DHT22;48640;48.770;9.148;2022-07-12T14:15:06;27.00;38.30
62581;DHT22;48640;48.770;9.148;2022-07-12T14:18:02;26.50;37.40
62581;DHT22;48640;48.770;9.148;2022-07-12T14:20:29;26.40;38.70
62581;DHT22;48640;48.770;9.148;2022-07-12T14:22:57;26.00;38.30
62581;DHT22;48640;48.770;9.148;2022-07-12T14:25:23;25.80;38.80
62581;DHT22;48640;48.770;9.148;2022-07-12T14:27:52;25.80;38.80
62581;DHT22;48640;48.770;9.148;2022-07-12T14:30:18;25.60;39.10
62581;DHT22;48640;48.770;9.148;2022-07-12T14:32:47;25.80;39.20
62581;DHT22;48640;48.770;9.148;2022-07-12T14:35:14;25.80;39.70
62581;DHT22;48640;48.770;9.148;2022-07-12T14:37:41;25.90;39.90
62581;DHT22;48640;48.770;9.148;2022-07-12T14:40:09;25.70;40.40
62581;DHT22;48640;48.770;9.148;2022-07-12T14:42:36;25.60;41.00
62581;DHT22;48640;48.770;9.148;2022-07-12T14:45:05;25.80;40.50
62581;DHT22;48640;48.770;9.148;2022-07-12T14:47:32;26.00;41.10
62581;DHT22;48640;48.770;9.148;2022-07-12T14:49:59;26.30;39.40
62581;DHT22;48640;48.770;9.148;2022-07-12T14:52:27;26.40;38.80
62581;DHT22;48640;48.770;9.148;2022-07-12T14:54:54;26.40;38.70
62581;DHT22;48640;48.770;9.148;2022-07-12T14:57:21;26.30;38.90
62581;DHT22;48640;48.770;9.148;2022-07-12T14:59:48;26.30;39.60
62581;DHT22;48640;48.770;9.148;2022-07-12T15:02:16;26.40;39.40
62581;DHT22;48640;48.770;9.148;2022-07-12T15:04:43;26.50;38.80
62581;DHT22;48640;48.770;9.148;2022-07-12T15:07:10;26.20;38.60
62581;DHT22;48640;48.770;9.148;2022-07-12T15:09:37;26.10;39.40
62581;DHT22;48640;48.770;9.148;2022-07-12T15:12:04;26.10;39.00
62581;DHT22;48640;48.770;9.148;2022-07-12T15:14:31;26.20;39.00
62581;DHT22;48640;48.770;9.148;2022-07-12T15:16:58;25.90;39.20
62581;DHT22;48640;48.770;9.148;2022-07-12T15:19:26;25.90;40.50
62581;DHT22;48640;48.770;9.148;2022-07-12T15:21:53;26.00;39.80
62581;DHT22;48640;48.770;9.148;2022-07-12T15:24:20;26.10;39.20
62581;DHT22;48640;48.770;9.148;2022-07-12T15:26:47;26.20;39.30
62581;DHT22;48640;48.770;9.148;2022-07-12T15:29:14;26.30;38.50
62581;DHT22;48640;48.770;9.148;2022-07-12T15:31:41;26.40;38.70
62581;DHT22;48640;48.770;9.148;2022-07-12T15:34:10;26.40;38.50
62581;DHT22;48640;48.770;9.148;2022-07-12T15:36:38;26.40;38.40